THY355J LTFM-LTBJ
Flight info
| Callsign | THY355J |
|---|---|
| Flight time | 0h 45m |
| Altitude | 27000 |
| Route | IVGUS M19 OVZOK |
| Aircraft | A320/M-SDE3FGHIRWY/LB1 |
Departure
| Time | 2026-02-17 15:23 |
|---|---|
| Airport | İstanbul Airport (LTFM) |
Arrival
| Time | 2026-02-17 16:09 |
|---|---|
| Airport | Adnan Menderes International Airport (LTBJ) |
| Time | Latitude | Longitude | Altitude | Speed | Heading |
|---|---|---|---|---|---|
| 2026-02-17 14:47 | 41.26491 | 28.73763 | 334 ft | 0 kts | 257° |
| 2026-02-17 15:09 | 41.26491 | 28.73765 | 334 ft | 1 kts | 257° |
| 2026-02-17 15:10 | 41.26495 | 28.73787 | 330 ft | 3 kts | 256° |
| 2026-02-17 15:10 | 41.26500 | 28.73813 | 330 ft | 3 kts | 254° |
| 2026-02-17 15:10 | 41.26505 | 28.73839 | 330 ft | 3 kts | 254° |
| 2026-02-17 15:11 | 41.26514 | 28.73885 | 330 ft | 3 kts | 270° |
| 2026-02-17 15:11 | 41.26511 | 28.73908 | 330 ft | 3 kts | 314° |
| 2026-02-17 15:11 | 41.26495 | 28.73920 | 329 ft | 3 kts | 357° |
| 2026-02-17 15:11 | 41.26475 | 28.73919 | 331 ft | 3 kts | 4° |
| 2026-02-17 15:12 | 41.26457 | 28.73919 | 330 ft | 2 kts | 344° |
| 2026-02-17 15:12 | 41.26452 | 28.73920 | 332 ft | 0 kts | 338° |
| 2026-02-17 15:14 | 41.26458 | 28.73917 | 330 ft | 2 kts | 338° |
| 2026-02-17 15:15 | 41.26519 | 28.73887 | 331 ft | 7 kts | 342° |
| 2026-02-17 15:15 | 41.26575 | 28.73879 | 330 ft | 9 kts | 359° |
| 2026-02-17 15:15 | 41.26644 | 28.73877 | 332 ft | 11 kts | 358° |
| 2026-02-17 15:15 | 41.26725 | 28.73876 | 333 ft | 13 kts | 359° |
| 2026-02-17 15:16 | 41.26818 | 28.73874 | 333 ft | 14 kts | 359° |
| 2026-02-17 15:16 | 41.26921 | 28.73871 | 331 ft | 16 kts | 359° |
| 2026-02-17 15:16 | 41.27031 | 28.73855 | 333 ft | 15 kts | 315° |
| 2026-02-17 15:16 | 41.27050 | 28.73713 | 334 ft | 17 kts | 269° |
| 2026-02-17 15:17 | 41.27047 | 28.73548 | 332 ft | 19 kts | 269° |
| 2026-02-17 15:17 | 41.27044 | 28.73363 | 334 ft | 21 kts | 269° |
| 2026-02-17 15:17 | 41.27041 | 28.73161 | 334 ft | 23 kts | 268° |
| 2026-02-17 15:17 | 41.27060 | 28.72994 | 332 ft | 15 kts | 331° |
| 2026-02-17 15:18 | 41.27170 | 28.72983 | 332 ft | 17 kts | 359° |
| 2026-02-17 15:18 | 41.27291 | 28.72979 | 330 ft | 18 kts | 359° |
| 2026-02-17 15:18 | 41.27423 | 28.72975 | 334 ft | 20 kts | 358° |
| 2026-02-17 15:19 | 41.27717 | 28.72970 | 334 ft | 23 kts | 359° |
| 2026-02-17 15:19 | 41.27878 | 28.72967 | 332 ft | 24 kts | 359° |
| 2026-02-17 15:19 | 41.28051 | 28.72962 | 334 ft | 26 kts | 359° |
| 2026-02-17 15:19 | 41.28235 | 28.72957 | 330 ft | 27 kts | 359° |
| 2026-02-17 15:20 | 41.28429 | 28.72953 | 331 ft | 29 kts | 359° |
| 2026-02-17 15:20 | 41.28636 | 28.72949 | 330 ft | 30 kts | 359° |
| 2026-02-17 15:20 | 41.28853 | 28.72943 | 332 ft | 32 kts | 359° |
| 2026-02-17 15:20 | 41.29083 | 28.72937 | 330 ft | 34 kts | 359° |
| 2026-02-17 15:21 | 41.29324 | 28.72934 | 333 ft | 35 kts | 360° |
| 2026-02-17 15:21 | 41.29483 | 28.72911 | 333 ft | 15 kts | 317° |
| 2026-02-17 15:21 | 41.29483 | 28.72776 | 334 ft | 15 kts | 274° |
| 2026-02-17 15:21 | 41.29489 | 28.72638 | 334 ft | 8 kts | 270° |
| 2026-02-17 15:22 | 41.29487 | 28.72550 | 334 ft | 10 kts | 269° |
| 2026-02-17 15:22 | 41.29475 | 28.72463 | 330 ft | 7 kts | 204° |
| 2026-02-17 15:22 | 41.29416 | 28.72464 | 333 ft | 10 kts | 180° |
| 2026-02-17 15:23 | 41.29087 | 28.72468 | 330 ft | 69 kts | 179° |
| 2026-02-17 15:23 | 41.28418 | 28.72478 | 332 ft | 121 kts | 179° |
| 2026-02-17 15:23 | 41.27435 | 28.72490 | 361 ft | 159 kts | 179° |
| 2026-02-17 15:23 | 41.26388 | 28.72489 | 1136 ft | 144 kts | 181° |
| 2026-02-17 15:24 | 41.25381 | 28.72482 | 1807 ft | 146 kts | 181° |
| 2026-02-17 15:24 | 41.24341 | 28.72495 | 2351 ft | 156 kts | 181° |
| 2026-02-17 15:24 | 41.23188 | 28.72550 | 2710 ft | 176 kts | 179° |
| 2026-02-17 15:24 | 41.21885 | 28.72638 | 2958 ft | 200 kts | 178° |
| 2026-02-17 15:25 | 41.20415 | 28.72737 | 3413 ft | 219 kts | 179° |
| 2026-02-17 15:25 | 41.18888 | 28.72799 | 4251 ft | 224 kts | 186° |
| 2026-02-17 15:25 | 41.17435 | 28.72050 | 5054 ft | 234 kts | 215° |
| 2026-02-17 15:25 | 41.16183 | 28.70609 | 5891 ft | 241 kts | 219° |
| 2026-02-17 15:26 | 41.14937 | 28.69098 | 6737 ft | 245 kts | 219° |
| 2026-02-17 15:26 | 41.13672 | 28.67550 | 7554 ft | 249 kts | 220° |
| 2026-02-17 15:26 | 41.12501 | 28.65816 | 8358 ft | 258 kts | 233° |
| 2026-02-17 15:27 | 41.11331 | 28.61172 | 9923 ft | 274 kts | 252° |
| 2026-02-17 15:27 | 41.10903 | 28.58670 | 10426 ft | 288 kts | 251° |
| 2026-02-17 15:27 | 41.10432 | 28.55988 | 10654 ft | 310 kts | 252° |
| 2026-02-17 15:27 | 41.09933 | 28.53148 | 11134 ft | 320 kts | 252° |
| 2026-02-17 15:28 | 41.09427 | 28.50246 | 11812 ft | 325 kts | 252° |
| 2026-02-17 15:28 | 41.08918 | 28.47311 | 12497 ft | 329 kts | 252° |
| 2026-02-17 15:28 | 41.08403 | 28.44351 | 13189 ft | 332 kts | 252° |
| 2026-02-17 15:28 | 41.07878 | 28.41351 | 13819 ft | 336 kts | 252° |
| 2026-02-17 15:29 | 41.07349 | 28.38324 | 14446 ft | 338 kts | 252° |
| 2026-02-17 15:29 | 41.06822 | 28.35319 | 15058 ft | 341 kts | 252° |
| 2026-02-17 15:29 | 41.06284 | 28.32249 | 15667 ft | 343 kts | 252° |
| 2026-02-17 15:29 | 41.05743 | 28.29155 | 16274 ft | 346 kts | 252° |
| 2026-02-17 15:30 | 41.05196 | 28.26038 | 16882 ft | 349 kts | 252° |
| 2026-02-17 15:30 | 41.04642 | 28.22891 | 17495 ft | 352 kts | 252° |
| 2026-02-17 15:30 | 41.04081 | 28.19726 | 18043 ft | 355 kts | 252° |
| 2026-02-17 15:31 | 41.02944 | 28.13327 | 19164 ft | 359 kts | 252° |
| 2026-02-17 15:31 | 41.02372 | 28.10108 | 19738 ft | 360 kts | 252° |
| 2026-02-17 15:31 | 41.01795 | 28.06873 | 20271 ft | 362 kts | 252° |
| 2026-02-17 15:31 | 41.01220 | 28.03667 | 20799 ft | 364 kts | 252° |
| 2026-02-17 15:32 | 41.00636 | 28.00404 | 21321 ft | 365 kts | 251° |
| 2026-02-17 15:32 | 41.00049 | 27.97126 | 21839 ft | 367 kts | 251° |
| 2026-02-17 15:32 | 40.99456 | 27.93832 | 22354 ft | 369 kts | 251° |
| 2026-02-17 15:32 | 40.98861 | 27.90525 | 22872 ft | 370 kts | 251° |
| 2026-02-17 15:33 | 40.98016 | 27.87328 | 23306 ft | 366 kts | 240° |
| 2026-02-17 15:33 | 40.96681 | 27.84486 | 23729 ft | 363 kts | 229° |
| 2026-02-17 15:33 | 40.94923 | 27.82107 | 24164 ft | 362 kts | 217° |
| 2026-02-17 15:33 | 40.92825 | 27.80282 | 24563 ft | 362 kts | 207° |
| 2026-02-17 15:34 | 40.90544 | 27.78841 | 24970 ft | 364 kts | 206° |
| 2026-02-17 15:34 | 40.88284 | 27.77424 | 25381 ft | 365 kts | 206° |
| 2026-02-17 15:34 | 40.85986 | 27.75979 | 25773 ft | 367 kts | 206° |
| 2026-02-17 15:35 | 40.81355 | 27.73069 | 26424 ft | 369 kts | 206° |
| 2026-02-17 15:35 | 40.79067 | 27.71633 | 26462 ft | 359 kts | 206° |
| 2026-02-17 15:35 | 40.76830 | 27.70232 | 26462 ft | 354 kts | 206° |
| 2026-02-17 15:35 | 40.74608 | 27.68844 | 26461 ft | 353 kts | 206° |
| 2026-02-17 15:36 | 40.72385 | 27.67457 | 26462 ft | 353 kts | 206° |
| 2026-02-17 15:36 | 40.70172 | 27.66072 | 26459 ft | 352 kts | 206° |
| 2026-02-17 15:36 | 40.67959 | 27.64687 | 26461 ft | 352 kts | 206° |
| 2026-02-17 15:36 | 40.65746 | 27.63305 | 26462 ft | 352 kts | 205° |
| 2026-02-17 15:37 | 40.63559 | 27.61939 | 26456 ft | 353 kts | 206° |
| 2026-02-17 15:37 | 40.61342 | 27.60550 | 26461 ft | 353 kts | 206° |
| 2026-02-17 15:37 | 40.59110 | 27.59198 | 26458 ft | 353 kts | 201° |
| 2026-02-17 15:37 | 40.56739 | 27.58329 | 26458 ft | 355 kts | 191° |
| 2026-02-17 15:38 | 40.54271 | 27.58110 | 26459 ft | 358 kts | 181° |
| 2026-02-17 15:38 | 40.51780 | 27.58396 | 26457 ft | 359 kts | 178° |
| 2026-02-17 15:38 | 40.49291 | 27.58713 | 26458 ft | 359 kts | 178° |
| 2026-02-17 15:39 | 40.44309 | 27.59322 | 26456 ft | 359 kts | 179° |
| 2026-02-17 15:39 | 40.41822 | 27.59624 | 26455 ft | 359 kts | 179° |
| 2026-02-17 15:39 | 40.39365 | 27.59926 | 26458 ft | 359 kts | 179° |
| 2026-02-17 15:39 | 40.36875 | 27.60235 | 26461 ft | 359 kts | 179° |
| 2026-02-17 15:40 | 40.34392 | 27.60271 | 26459 ft | 355 kts | 188° |
| 2026-02-17 15:40 | 40.31951 | 27.59826 | 26460 ft | 354 kts | 191° |
| 2026-02-17 15:40 | 40.29515 | 27.59347 | 26460 ft | 354 kts | 191° |
| 2026-02-17 15:40 | 40.27076 | 27.58877 | 26461 ft | 354 kts | 191° |
| 2026-02-17 15:41 | 40.24636 | 27.58411 | 26463 ft | 355 kts | 191° |
| 2026-02-17 15:41 | 40.22193 | 27.57946 | 26466 ft | 355 kts | 191° |
| 2026-02-17 15:41 | 40.19752 | 27.57478 | 26468 ft | 355 kts | 191° |
| 2026-02-17 15:41 | 40.17310 | 27.57007 | 26467 ft | 355 kts | 191° |
| 2026-02-17 15:42 | 40.14867 | 27.56539 | 26468 ft | 355 kts | 191° |
| 2026-02-17 15:42 | 40.12459 | 27.56079 | 26475 ft | 355 kts | 191° |
| 2026-02-17 15:42 | 40.10020 | 27.55613 | 26480 ft | 355 kts | 191° |
| 2026-02-17 15:43 | 40.05141 | 27.54677 | 26487 ft | 354 kts | 191° |
| 2026-02-17 15:43 | 40.02701 | 27.54208 | 26487 ft | 354 kts | 191° |
| 2026-02-17 15:43 | 40.00269 | 27.53740 | 26489 ft | 354 kts | 191° |
| 2026-02-17 15:43 | 39.97837 | 27.53275 | 26480 ft | 353 kts | 191° |
| 2026-02-17 15:44 | 39.95403 | 27.52811 | 26493 ft | 353 kts | 191° |
| 2026-02-17 15:44 | 39.92972 | 27.52349 | 26490 ft | 353 kts | 191° |
| 2026-02-17 15:44 | 39.90546 | 27.51889 | 26495 ft | 353 kts | 191° |
| 2026-02-17 15:44 | 39.88149 | 27.51434 | 26503 ft | 352 kts | 191° |
| 2026-02-17 15:45 | 39.85727 | 27.50973 | 26466 ft | 351 kts | 191° |
| 2026-02-17 15:45 | 39.83336 | 27.50521 | 26203 ft | 342 kts | 191° |
| 2026-02-17 15:45 | 39.81008 | 27.50084 | 25947 ft | 335 kts | 191° |
| 2026-02-17 15:45 | 39.78721 | 27.49650 | 25685 ft | 331 kts | 191° |
| 2026-02-17 15:46 | 39.76448 | 27.49219 | 25433 ft | 329 kts | 191° |
| 2026-02-17 15:46 | 39.74184 | 27.48785 | 25183 ft | 328 kts | 191° |
| 2026-02-17 15:46 | 39.71933 | 27.48352 | 24936 ft | 327 kts | 191° |
| 2026-02-17 15:47 | 39.67453 | 27.47504 | 24444 ft | 324 kts | 190° |
| 2026-02-17 15:47 | 39.65256 | 27.47096 | 24203 ft | 323 kts | 190° |
| 2026-02-17 15:47 | 39.63037 | 27.46681 | 23962 ft | 321 kts | 190° |
| 2026-02-17 15:47 | 39.60830 | 27.46265 | 23717 ft | 320 kts | 190° |
| 2026-02-17 15:48 | 39.58630 | 27.45846 | 23480 ft | 319 kts | 191° |
| 2026-02-17 15:48 | 39.56437 | 27.45429 | 23250 ft | 318 kts | 190° |
| 2026-02-17 15:48 | 39.54253 | 27.45020 | 23001 ft | 316 kts | 190° |
| 2026-02-17 15:48 | 39.52079 | 27.44612 | 22724 ft | 315 kts | 190° |
| 2026-02-17 15:49 | 39.49913 | 27.44207 | 22452 ft | 314 kts | 190° |
| 2026-02-17 15:49 | 39.47757 | 27.43806 | 22170 ft | 312 kts | 191° |
| 2026-02-17 15:49 | 39.45612 | 27.43406 | 21900 ft | 311 kts | 191° |
| 2026-02-17 15:49 | 39.43503 | 27.43015 | 21636 ft | 310 kts | 191° |
| 2026-02-17 15:50 | 39.41376 | 27.42619 | 21480 ft | 308 kts | 191° |
| 2026-02-17 15:50 | 39.39254 | 27.42224 | 21492 ft | 308 kts | 191° |
| 2026-02-17 15:50 | 39.35100 | 27.41003 | 21498 ft | 306 kts | 198° |
| 2026-02-17 15:51 | 39.33055 | 27.40230 | 21490 ft | 306 kts | 198° |
| 2026-02-17 15:51 | 39.31008 | 27.39460 | 21495 ft | 306 kts | 198° |
| 2026-02-17 15:51 | 39.28964 | 27.38691 | 21494 ft | 306 kts | 198° |
| 2026-02-17 15:51 | 39.26917 | 27.37923 | 21491 ft | 306 kts | 198° |
| 2026-02-17 15:52 | 39.24866 | 27.37158 | 21494 ft | 307 kts | 198° |
| 2026-02-17 15:52 | 39.22843 | 27.36402 | 20988 ft | 310 kts | 198° |
| 2026-02-17 15:52 | 39.20732 | 27.35614 | 20134 ft | 319 kts | 198° |
| 2026-02-17 15:52 | 39.18595 | 27.34815 | 19552 ft | 320 kts | 198° |
| 2026-02-17 15:53 | 39.16462 | 27.34021 | 19039 ft | 318 kts | 198° |
| 2026-02-17 15:53 | 39.14339 | 27.33230 | 18541 ft | 316 kts | 198° |
| 2026-02-17 15:53 | 39.12231 | 27.32448 | 18046 ft | 314 kts | 199° |
| 2026-02-17 15:53 | 39.10136 | 27.31672 | 17525 ft | 313 kts | 199° |
| 2026-02-17 15:54 | 39.08053 | 27.30896 | 16977 ft | 311 kts | 199° |
| 2026-02-17 15:54 | 39.05980 | 27.30123 | 16489 ft | 309 kts | 199° |
| 2026-02-17 15:54 | 39.01879 | 27.28601 | 15449 ft | 305 kts | 200° |
| 2026-02-17 15:55 | 38.99839 | 27.27846 | 14929 ft | 304 kts | 199° |
| 2026-02-17 15:55 | 38.97838 | 27.27107 | 14438 ft | 302 kts | 200° |
| 2026-02-17 15:55 | 38.95822 | 27.26362 | 13942 ft | 301 kts | 199° |
| 2026-02-17 15:55 | 38.93841 | 27.25627 | 13762 ft | 290 kts | 199° |
| 2026-02-17 15:56 | 38.91942 | 27.24924 | 13636 ft | 279 kts | 199° |
| 2026-02-17 15:56 | 38.90108 | 27.24246 | 13513 ft | 269 kts | 199° |
| 2026-02-17 15:56 | 38.88340 | 27.23595 | 13387 ft | 260 kts | 199° |
| 2026-02-17 15:56 | 38.86596 | 27.23126 | 13262 ft | 254 kts | 192° |
| 2026-02-17 15:57 | 38.84867 | 27.22837 | 13081 ft | 248 kts | 192° |
| 2026-02-17 15:57 | 38.83167 | 27.22546 | 12785 ft | 246 kts | 193° |
| 2026-02-17 15:57 | 38.81481 | 27.22252 | 12477 ft | 244 kts | 193° |
| 2026-02-17 15:57 | 38.79807 | 27.21960 | 12153 ft | 242 kts | 193° |
| 2026-02-17 15:58 | 38.78138 | 27.21667 | 11834 ft | 242 kts | 193° |
| 2026-02-17 15:58 | 38.76469 | 27.21377 | 11516 ft | 242 kts | 193° |
| 2026-02-17 15:58 | 38.73189 | 27.20813 | 10756 ft | 236 kts | 192° |
| 2026-02-17 15:59 | 38.71567 | 27.20538 | 10231 ft | 235 kts | 192° |
| 2026-02-17 15:59 | 38.69944 | 27.20263 | 9707 ft | 235 kts | 193° |
| 2026-02-17 15:59 | 38.68331 | 27.19990 | 9083 ft | 234 kts | 192° |
| 2026-02-17 15:59 | 38.66724 | 27.19717 | 8554 ft | 232 kts | 192° |
| 2026-02-17 16:00 | 38.65130 | 27.19448 | 8043 ft | 229 kts | 192° |
| 2026-02-17 16:00 | 38.63560 | 27.19183 | 7546 ft | 226 kts | 192° |
| 2026-02-17 16:00 | 38.62010 | 27.18922 | 7083 ft | 224 kts | 192° |
| 2026-02-17 16:00 | 38.60461 | 27.18658 | 6664 ft | 228 kts | 192° |
| 2026-02-17 16:01 | 38.58892 | 27.18334 | 6368 ft | 224 kts | 200° |
| 2026-02-17 16:01 | 38.57612 | 27.17330 | 6248 ft | 213 kts | 225° |
| 2026-02-17 16:01 | 38.56896 | 27.15695 | 5924 ft | 213 kts | 249° |
| 2026-02-17 16:01 | 38.56581 | 27.13943 | 5613 ft | 198 kts | 250° |
| 2026-02-17 16:02 | 38.56269 | 27.12225 | 5361 ft | 200 kts | 249° |
| 2026-02-17 16:02 | 38.55954 | 27.10518 | 5072 ft | 193 kts | 249° |
| 2026-02-17 16:02 | 38.54457 | 27.08170 | 4599 ft | 173 kts | 196° |
| 2026-02-17 16:03 | 38.53259 | 27.08204 | 4392 ft | 177 kts | 174° |
| 2026-02-17 16:03 | 38.52064 | 27.08574 | 4175 ft | 174 kts | 175° |
| 2026-02-17 16:03 | 38.50912 | 27.08928 | 3952 ft | 168 kts | 174° |
| 2026-02-17 16:03 | 38.49792 | 27.09272 | 3729 ft | 163 kts | 174° |
| 2026-02-17 16:04 | 38.48726 | 27.09599 | 3524 ft | 156 kts | 174° |
| 2026-02-17 16:04 | 38.47709 | 27.09911 | 3332 ft | 145 kts | 174° |
| 2026-02-17 16:04 | 38.46755 | 27.10202 | 3207 ft | 139 kts | 175° |
| 2026-02-17 16:04 | 38.45820 | 27.10485 | 3148 ft | 138 kts | 175° |
| 2026-02-17 16:05 | 38.44889 | 27.10766 | 3088 ft | 137 kts | 174° |
| 2026-02-17 16:05 | 38.43958 | 27.11045 | 3052 ft | 137 kts | 175° |
| 2026-02-17 16:05 | 38.43030 | 27.11324 | 3034 ft | 137 kts | 174° |
| 2026-02-17 16:05 | 38.42096 | 27.11605 | 2819 ft | 137 kts | 174° |
| 2026-02-17 16:06 | 38.41175 | 27.11883 | 2618 ft | 135 kts | 174° |
| 2026-02-17 16:06 | 38.40258 | 27.12160 | 2419 ft | 136 kts | 174° |
| 2026-02-17 16:06 | 38.38428 | 27.12714 | 2020 ft | 135 kts | 172° |
| 2026-02-17 16:07 | 38.37528 | 27.12984 | 1840 ft | 135 kts | 172° |
| 2026-02-17 16:07 | 38.36613 | 27.13258 | 1665 ft | 135 kts | 172° |
| 2026-02-17 16:07 | 38.35700 | 27.13531 | 1458 ft | 135 kts | 171° |
| 2026-02-17 16:07 | 38.34778 | 27.13809 | 1286 ft | 138 kts | 171° |
| 2026-02-17 16:08 | 38.33843 | 27.14089 | 1100 ft | 139 kts | 170° |
| 2026-02-17 16:08 | 38.31949 | 27.14660 | 736 ft | 138 kts | 170° |
| 2026-02-17 16:08 | 38.31021 | 27.14953 | 565 ft | 137 kts | 172° |
| 2026-02-17 16:09 | 38.30108 | 27.15223 | 407 ft | 129 kts | 171° |
| 2026-02-17 16:09 | 38.29401 | 27.15415 | 397 ft | 80 kts | 166° |
| 2026-02-17 16:09 | 38.29025 | 27.15533 | 394 ft | 31 kts | 166° |
| 2026-02-17 16:09 | 38.28868 | 27.15582 | 393 ft | 26 kts | 163° |
| 2026-02-17 16:10 | 38.28653 | 27.15652 | 391 ft | 34 kts | 166° |
| 2026-02-17 16:10 | 38.28577 | 27.15676 | 391 ft | 1 kts | 179° |
| 2026-02-17 16:10 | 38.28572 | 27.15600 | 392 ft | 7 kts | 274° |
| 2026-02-17 16:11 | 38.28567 | 27.15538 | 393 ft | 7 kts | 260° |
| 2026-02-17 16:11 | 38.28560 | 27.15451 | 392 ft | 12 kts | 279° |
| 2026-02-17 16:11 | 38.28637 | 27.15407 | 393 ft | 16 kts | 347° |
| 2026-02-17 16:11 | 38.28762 | 27.15372 | 393 ft | 20 kts | 346° |
| 2026-02-17 16:12 | 38.28900 | 27.15327 | 394 ft | 21 kts | 346° |
| 2026-02-17 16:12 | 38.29025 | 27.15256 | 395 ft | 18 kts | 311° |
| 2026-02-17 16:12 | 38.29122 | 27.15176 | 391 ft | 18 kts | 347° |
| 2026-02-17 16:12 | 38.29223 | 27.15163 | 393 ft | 8 kts | 356° |
| 2026-02-17 16:13 | 38.29255 | 27.15115 | 395 ft | 8 kts | 269° |
| 2026-02-17 16:13 | 38.29247 | 27.15066 | 392 ft | 0 kts | 257° |